Terminal Aerodrome Forecast
Issued by NWS

Home | Current Version | Previous Version | Text Only | Print | Product List | Glossary On
Versions: 1 2 3 4 5 6 7 8 9 10 11 12 13 14 15 16 17 18 19 20
696
FTUS41 KCAR 271403 AAA
TAFHUL
TAF AMD
KHUL 271403Z 2714/2812 12007KT P6SM BKN012
     FM271900 17009KT P6SM BKN025
     FM272000 17009KT P6SM BKN060
     FM280300 19006KT P6SM BKN003=

USA.gov is the U.S. government's official web portal to all federal, state and local government web resources and services.